Аэропорт: Минеральные Воды. Минеральные Воды

ICAO: URMM

METAR:
2020-08-13 11:00:00
URMM 131100Z 34008G13MPS 9999 NSC 28/10 Q1010 R30/090070 NOSIG RMK QFE729/0972
METAR:
2020-08-13 08:40:00
TAF AMD URMM 130840Z 1309/1409 29005G12MPS 9999 SCT030 TX30/1312Z TN17/1403Z TEMPO 1309/1403 VRB11G23MPS -TSRAGR BKN016 BKN030CB BECMG 1403/1405 27003G08MPS